UAE9912 TJBQ-EHAM
Flight info
| Callsign | UAE9912 |
|---|---|
| Flight time | 8h 2m |
| Altitude | 33000 |
| Route | BQN DCT CAFFE M525 SOCCO/M084F330 DCT FOORE DCT 31N050W/M084F350 35N045W 38N040W 43N030W 48N020W DCT KOGAD/M084F370 DCT BIMGO DCT LULOX/N0480F370 DCT BAPHU DCT GAJIT DCT ENHAQ M197 REDFA |
| Aircraft | B77L/H-SDE1E2E3FGHIJ2J3J4J5M1RWXY/LB1D1 |
Departure
| Time | 2026-04-30 12:35 |
|---|---|
| Airport | Rafael Hernández International Airport (TJBQ) |
Arrival
| Time | 2026-04-30 20:37 |
|---|---|
| Airport | Amsterdam Airport Schiphol (EHAM) |
| Time | Latitude | Longitude | Altitude | Speed | Heading |
|---|---|---|---|---|---|
| 2026-04-30 12:07 | 18.49337 | -67.14100 | 246 ft | 0 kts | 71° |
| 2026-04-30 12:29 | 18.49337 | -67.14099 | 246 ft | 0 kts | 71° |
| 2026-04-30 12:29 | 18.49339 | -67.14091 | 246 ft | 2 kts | 72° |
| 2026-04-30 12:29 | 18.49347 | -67.14067 | 246 ft | 5 kts | 72° |
| 2026-04-30 12:30 | 18.49360 | -67.14026 | 246 ft | 6 kts | 72° |
| 2026-04-30 12:30 | 18.49344 | -67.13986 | 246 ft | 6 kts | 142° |
| 2026-04-30 12:30 | 18.49300 | -67.13981 | 245 ft | 7 kts | 203° |
| 2026-04-30 12:30 | 18.49275 | -67.14021 | 245 ft | 7 kts | 249° |
| 2026-04-30 12:31 | 18.49260 | -67.14068 | 245 ft | 7 kts | 252° |
| 2026-04-30 12:31 | 18.49243 | -67.14122 | 246 ft | 9 kts | 252° |
| 2026-04-30 12:31 | 18.49221 | -67.14193 | 247 ft | 12 kts | 252° |
| 2026-04-30 12:31 | 18.49192 | -67.14287 | 247 ft | 15 kts | 252° |
| 2026-04-30 12:32 | 18.49161 | -67.14393 | 248 ft | 15 kts | 252° |
| 2026-04-30 12:32 | 18.49129 | -67.14498 | 249 ft | 14 kts | 251° |
| 2026-04-30 12:32 | 18.49087 | -67.14563 | 248 ft | 11 kts | 197° |
| 2026-04-30 12:32 | 18.49045 | -67.14554 | 249 ft | 0 kts | 158° |
| 2026-04-30 12:33 | 18.49037 | -67.14551 | 249 ft | 3 kts | 158° |
| 2026-04-30 12:33 | 18.49009 | -67.14538 | 249 ft | 4 kts | 145° |
| 2026-04-30 12:33 | 18.49003 | -67.14516 | 249 ft | 3 kts | 84° |
| 2026-04-30 12:34 | 18.49024 | -67.14456 | 250 ft | 21 kts | 71° |
| 2026-04-30 12:34 | 18.49146 | -67.14058 | 245 ft | 94 kts | 72° |
| 2026-04-30 12:34 | 18.49415 | -67.13160 | 239 ft | 160 kts | 71° |
| 2026-04-30 12:34 | 18.49793 | -67.11896 | 422 ft | 191 kts | 73° |
| 2026-04-30 12:35 | 18.50092 | -67.11031 | 881 ft | 188 kts | 71° |
| 2026-04-30 12:35 | 18.50580 | -67.09742 | 1536 ft | 191 kts | 69° |
| 2026-04-30 12:35 | 18.51086 | -67.08382 | 1866 ft | 206 kts | 70° |
| 2026-04-30 12:35 | 18.51708 | -67.06970 | 2156 ft | 225 kts | 57° |
| 2026-04-30 12:36 | 18.52654 | -67.05552 | 2356 ft | 246 kts | 56° |
| 2026-04-30 12:36 | 18.53692 | -67.04047 | 2828 ft | 258 kts | 55° |
| 2026-04-30 12:36 | 18.54755 | -67.02514 | 3581 ft | 261 kts | 55° |
| 2026-04-30 12:36 | 18.55831 | -67.00957 | 4251 ft | 265 kts | 55° |
| 2026-04-30 12:37 | 18.56917 | -66.99378 | 5008 ft | 266 kts | 55° |
| 2026-04-30 12:37 | 18.58355 | -66.97270 | 5915 ft | 271 kts | 54° |
| 2026-04-30 12:37 | 18.59100 | -66.96171 | 6353 ft | 273 kts | 54° |
| 2026-04-30 12:37 | 18.60201 | -66.94541 | 7015 ft | 275 kts | 54° |
| 2026-04-30 12:38 | 18.61324 | -66.92874 | 7555 ft | 282 kts | 54° |
| 2026-04-30 12:38 | 18.62468 | -66.91172 | 8160 ft | 286 kts | 54° |
| 2026-04-30 12:38 | 18.63625 | -66.89447 | 8773 ft | 291 kts | 54° |
| 2026-04-30 12:38 | 18.64789 | -66.87708 | 9310 ft | 297 kts | 53° |
| 2026-04-30 12:39 | 18.66005 | -66.85888 | 9901 ft | 302 kts | 53° |
| 2026-04-30 12:39 | 18.67206 | -66.84092 | 10429 ft | 308 kts | 54° |
| 2026-04-30 12:39 | 18.68486 | -66.82177 | 10564 ft | 331 kts | 54° |
| 2026-04-30 12:39 | 18.69855 | -66.80127 | 10726 ft | 352 kts | 54° |
| 2026-04-30 12:40 | 18.71306 | -66.77952 | 10877 ft | 373 kts | 54° |
| 2026-04-30 12:40 | 18.72834 | -66.75660 | 11210 ft | 388 kts | 54° |
| 2026-04-30 12:40 | 18.74400 | -66.73309 | 11733 ft | 397 kts | 54° |
| 2026-04-30 12:40 | 18.76000 | -66.70904 | 12312 ft | 403 kts | 54° |
| 2026-04-30 12:41 | 18.77625 | -66.68462 | 12970 ft | 409 kts | 54° |
| 2026-04-30 12:41 | 18.79268 | -66.65990 | 13609 ft | 415 kts | 54° |
| 2026-04-30 12:41 | 18.80938 | -66.63480 | 14180 ft | 420 kts | 54° |
| 2026-04-30 12:41 | 18.82626 | -66.60940 | 14744 ft | 425 kts | 54° |
| 2026-04-30 12:42 | 18.84330 | -66.58376 | 15323 ft | 429 kts | 54° |
| 2026-04-30 12:42 | 18.86052 | -66.55783 | 15902 ft | 434 kts | 54° |
| 2026-04-30 12:42 | 18.87791 | -66.53164 | 16470 ft | 438 kts | 54° |
| 2026-04-30 12:42 | 18.89550 | -66.50513 | 17016 ft | 443 kts | 53° |
| 2026-04-30 12:43 | 18.91327 | -66.47836 | 17556 ft | 448 kts | 53° |
| 2026-04-30 12:43 | 18.93127 | -66.45121 | 18054 ft | 454 kts | 53° |
| 2026-04-30 12:43 | 18.94946 | -66.42377 | 18538 ft | 458 kts | 53° |
| 2026-04-30 12:43 | 18.96779 | -66.39611 | 19009 ft | 462 kts | 53° |
| 2026-04-30 12:44 | 18.98628 | -66.36818 | 19478 ft | 465 kts | 53° |
| 2026-04-30 12:44 | 19.00491 | -66.34004 | 19943 ft | 469 kts | 54° |
| 2026-04-30 12:44 | 19.02370 | -66.31163 | 20375 ft | 474 kts | 54° |
| 2026-04-30 12:44 | 19.04264 | -66.28299 | 20841 ft | 478 kts | 54° |
| 2026-04-30 12:45 | 19.06173 | -66.25411 | 21275 ft | 481 kts | 54° |
| 2026-04-30 12:45 | 19.08098 | -66.22497 | 21702 ft | 485 kts | 54° |
| 2026-04-30 12:45 | 19.10038 | -66.19560 | 22116 ft | 489 kts | 54° |
| 2026-04-30 12:45 | 19.11996 | -66.16593 | 22526 ft | 493 kts | 54° |
| 2026-04-30 12:46 | 19.13966 | -66.13606 | 22936 ft | 497 kts | 54° |
| 2026-04-30 12:46 | 19.15953 | -66.10593 | 23347 ft | 501 kts | 54° |
| 2026-04-30 12:46 | 19.17925 | -66.07601 | 23730 ft | 504 kts | 54° |
| 2026-04-30 12:46 | 19.19934 | -66.04552 | 24095 ft | 506 kts | 54° |
| 2026-04-30 12:47 | 19.21952 | -66.01488 | 24457 ft | 508 kts | 54° |
| 2026-04-30 12:47 | 19.23976 | -65.98412 | 24831 ft | 511 kts | 54° |
| 2026-04-30 12:47 | 19.26009 | -65.95322 | 25180 ft | 513 kts | 53° |
| 2026-04-30 12:47 | 19.28055 | -65.92210 | 25519 ft | 516 kts | 53° |
| 2026-04-30 12:48 | 19.30111 | -65.89082 | 25869 ft | 519 kts | 53° |
| 2026-04-30 12:48 | 19.32173 | -65.85944 | 26224 ft | 521 kts | 53° |
| 2026-04-30 12:48 | 19.34247 | -65.82784 | 26594 ft | 524 kts | 53° |
| 2026-04-30 12:48 | 19.36332 | -65.79607 | 26923 ft | 526 kts | 53° |
| 2026-04-30 12:49 | 19.38426 | -65.76414 | 27279 ft | 529 kts | 53° |
| 2026-04-30 12:49 | 19.40527 | -65.73208 | 27633 ft | 531 kts | 53° |
| 2026-04-30 12:49 | 19.42637 | -65.69988 | 27964 ft | 534 kts | 53° |
| 2026-04-30 12:49 | 19.44760 | -65.66746 | 28289 ft | 537 kts | 53° |
| 2026-04-30 12:50 | 19.46892 | -65.63488 | 28589 ft | 539 kts | 53° |
| 2026-04-30 12:50 | 19.49033 | -65.60214 | 28905 ft | 541 kts | 52° |
| 2026-04-30 12:50 | 19.51177 | -65.56934 | 29265 ft | 542 kts | 52° |
| 2026-04-30 12:50 | 19.53326 | -65.53644 | 29581 ft | 543 kts | 52° |
| 2026-04-30 12:51 | 19.55477 | -65.50350 | 29939 ft | 544 kts | 52° |
| 2026-04-30 12:51 | 19.57631 | -65.47049 | 30302 ft | 544 kts | 52° |
| 2026-04-30 12:51 | 19.59781 | -65.43751 | 30616 ft | 544 kts | 52° |
| 2026-04-30 12:51 | 19.61937 | -65.40445 | 30884 ft | 546 kts | 52° |
| 2026-04-30 12:52 | 19.64096 | -65.37132 | 31166 ft | 547 kts | 52° |
| 2026-04-30 12:52 | 19.66264 | -65.33803 | 31448 ft | 548 kts | 51° |
| 2026-04-30 12:52 | 19.68428 | -65.30478 | 31738 ft | 549 kts | 51° |
| 2026-04-30 12:52 | 19.70593 | -65.27150 | 32081 ft | 548 kts | 51° |
| 2026-04-30 12:53 | 19.72758 | -65.23818 | 32376 ft | 548 kts | 51° |
| 2026-04-30 12:53 | 19.74922 | -65.20488 | 32624 ft | 549 kts | 51° |
| 2026-04-30 12:53 | 19.77096 | -65.17142 | 32876 ft | 551 kts | 51° |
| 2026-04-30 12:53 | 19.79279 | -65.13780 | 32957 ft | 554 kts | 51° |
| 2026-04-30 12:54 | 19.83645 | -65.07046 | 32990 ft | 552 kts | 51° |
| 2026-04-30 12:54 | 19.87971 | -65.00362 | 33010 ft | 548 kts | 51° |
| 2026-04-30 12:55 | 19.92286 | -64.93695 | 33024 ft | 548 kts | 51° |
| 2026-04-30 12:55 | 19.96606 | -64.87013 | 33009 ft | 549 kts | 51° |
| 2026-04-30 12:56 | 20.00900 | -64.80364 | 33010 ft | 550 kts | 51° |
| 2026-04-30 12:56 | 20.05226 | -64.73655 | 33004 ft | 551 kts | 51° |
| 2026-04-30 12:57 | 20.09559 | -64.66927 | 33015 ft | 552 kts | 51° |
| 2026-04-30 12:57 | 20.13895 | -64.60188 | 33009 ft | 552 kts | 51° |
| 2026-04-30 12:58 | 20.18237 | -64.53432 | 33021 ft | 553 kts | 51° |
| 2026-04-30 12:58 | 20.22579 | -64.46667 | 33019 ft | 554 kts | 51° |
| 2026-04-30 12:59 | 20.26926 | -64.39888 | 33016 ft | 554 kts | 51° |
| 2026-04-30 12:59 | 20.31267 | -64.33108 | 33012 ft | 554 kts | 51° |
| 2026-04-30 13:00 | 20.35602 | -64.26331 | 33013 ft | 553 kts | 51° |
| 2026-04-30 13:00 | 20.39925 | -64.19565 | 33015 ft | 552 kts | 51° |
| 2026-04-30 13:01 | 20.44243 | -64.12799 | 33026 ft | 552 kts | 51° |
| 2026-04-30 13:01 | 20.48565 | -64.06020 | 33019 ft | 553 kts | 51° |
| 2026-04-30 13:02 | 20.52886 | -63.99233 | 33018 ft | 552 kts | 51° |
| 2026-04-30 13:02 | 20.57190 | -63.92463 | 33018 ft | 551 kts | 51° |
| 2026-04-30 13:03 | 20.61486 | -63.85700 | 33021 ft | 550 kts | 51° |
| 2026-04-30 13:03 | 20.65777 | -63.78939 | 33042 ft | 550 kts | 52° |
| 2026-04-30 13:04 | 20.70031 | -63.72227 | 33022 ft | 550 kts | 52° |
| 2026-04-30 13:04 | 20.74311 | -63.65463 | 33021 ft | 549 kts | 52° |
| 2026-04-30 13:05 | 20.78588 | -63.58698 | 33022 ft | 549 kts | 52° |
| 2026-04-30 13:06 | 20.84996 | -63.48547 | 33022 ft | 549 kts | 52° |
| 2026-04-30 13:06 | 20.89270 | -63.41768 | 33036 ft | 550 kts | 52° |
| 2026-04-30 13:07 | 20.93544 | -63.34979 | 33006 ft | 550 kts | 52° |
| 2026-04-30 13:07 | 20.97811 | -63.28191 | 33025 ft | 550 kts | 52° |
| 2026-04-30 13:08 | 21.02078 | -63.21396 | 33031 ft | 550 kts | 52° |
| 2026-04-30 13:08 | 21.06344 | -63.14593 | 33010 ft | 550 kts | 52° |
| 2026-04-30 13:09 | 21.10653 | -63.07829 | 33011 ft | 548 kts | 49° |
| 2026-04-30 13:09 | 21.15685 | -63.01788 | 33023 ft | 540 kts | 38° |
| 2026-04-30 13:10 | 21.21165 | -62.96252 | 33020 ft | 542 kts | 38° |
| 2026-04-30 13:10 | 21.26636 | -62.90691 | 33018 ft | 543 kts | 38° |
| 2026-04-30 13:11 | 21.32060 | -62.85106 | 33023 ft | 544 kts | 39° |
| 2026-04-30 13:11 | 21.37510 | -62.79458 | 33034 ft | 545 kts | 39° |
| 2026-04-30 13:12 | 21.42950 | -62.73815 | 33022 ft | 543 kts | 39° |
| 2026-04-30 13:12 | 21.48372 | -62.68188 | 33013 ft | 541 kts | 39° |
| 2026-04-30 13:13 | 21.56454 | -62.59793 | 33016 ft | 537 kts | 39° |
| 2026-04-30 13:14 | 21.64503 | -62.51424 | 33030 ft | 537 kts | 40° |
| 2026-04-30 13:14 | 21.72537 | -62.43054 | 33020 ft | 536 kts | 40° |
| 2026-04-30 13:15 | 21.80568 | -62.34673 | 33023 ft | 536 kts | 40° |
| 2026-04-30 13:16 | 21.85917 | -62.29083 | 33023 ft | 536 kts | 40° |
| 2026-04-30 13:16 | 21.91273 | -62.23482 | 33033 ft | 537 kts | 40° |
| 2026-04-30 13:17 | 21.99287 | -62.15083 | 33019 ft | 535 kts | 40° |
| 2026-04-30 13:18 | 22.07275 | -62.06701 | 33026 ft | 534 kts | 40° |
| 2026-04-30 13:18 | 22.15241 | -61.98328 | 33022 ft | 533 kts | 40° |
| 2026-04-30 13:19 | 22.20545 | -61.92745 | 33024 ft | 533 kts | 40° |
| 2026-04-30 13:19 | 22.25810 | -61.87197 | 33023 ft | 532 kts | 40° |
| 2026-04-30 13:20 | 22.31104 | -61.81613 | 33021 ft | 532 kts | 40° |
| 2026-04-30 13:20 | 22.36389 | -61.76032 | 33029 ft | 532 kts | 41° |
| 2026-04-30 13:21 | 22.41688 | -61.70430 | 33027 ft | 533 kts | 41° |
| 2026-04-30 13:22 | 22.49647 | -61.62002 | 33026 ft | 535 kts | 41° |
| 2026-04-30 13:22 | 22.57621 | -61.53545 | 33025 ft | 536 kts | 41° |
| 2026-04-30 13:23 | 22.65620 | -61.45048 | 33027 ft | 538 kts | 41° |
| 2026-04-30 13:24 | 22.76333 | -61.33643 | 33025 ft | 541 kts | 41° |
| 2026-04-30 13:25 | 22.86151 | -61.23166 | 33034 ft | 542 kts | 41° |
| 2026-04-30 13:26 | 22.99587 | -61.08795 | 33013 ft | 543 kts | 41° |
| 2026-04-30 13:28 | 23.13026 | -60.94377 | 33021 ft | 543 kts | 42° |
| 2026-04-30 13:28 | 23.21086 | -60.85709 | 33036 ft | 544 kts | 42° |
| 2026-04-30 13:29 | 23.31830 | -60.74130 | 33026 ft | 543 kts | 42° |
| 2026-04-30 13:31 | 23.45150 | -60.59738 | 33025 ft | 540 kts | 42° |
| 2026-04-30 13:32 | 23.58459 | -60.45314 | 33034 ft | 539 kts | 42° |
| 2026-04-30 13:33 | 23.69057 | -60.33795 | 33029 ft | 537 kts | 42° |
| 2026-04-30 13:34 | 23.76991 | -60.25154 | 33038 ft | 537 kts | 42° |
| 2026-04-30 13:35 | 23.87578 | -60.13599 | 33025 ft | 538 kts | 42° |
| 2026-04-30 13:36 | 23.98171 | -60.02008 | 33040 ft | 539 kts | 42° |
| 2026-04-30 13:36 | 24.05713 | -59.92809 | 33029 ft | 543 kts | 47° |
| 2026-04-30 13:37 | 24.13015 | -59.83322 | 33021 ft | 543 kts | 47° |
| 2026-04-30 13:38 | 24.20352 | -59.73852 | 33039 ft | 544 kts | 46° |
| 2026-04-30 13:39 | 24.30120 | -59.61263 | 33018 ft | 544 kts | 46° |
| 2026-04-30 13:40 | 24.37465 | -59.51768 | 33019 ft | 544 kts | 46° |
| 2026-04-30 13:40 | 24.42355 | -59.45436 | 33017 ft | 544 kts | 46° |
| 2026-04-30 13:41 | 24.47240 | -59.39103 | 33022 ft | 543 kts | 46° |
| 2026-04-30 13:41 | 24.52119 | -59.32768 | 33018 ft | 543 kts | 46° |
| 2026-04-30 13:42 | 24.56989 | -59.26437 | 33016 ft | 543 kts | 46° |
| 2026-04-30 13:42 | 24.64292 | -59.16927 | 33020 ft | 543 kts | 46° |
| 2026-04-30 13:43 | 24.69167 | -59.10569 | 33014 ft | 544 kts | 46° |
| 2026-04-30 13:43 | 24.74039 | -59.04206 | 33015 ft | 544 kts | 46° |
| 2026-04-30 13:44 | 24.78914 | -58.97831 | 33011 ft | 544 kts | 46° |
| 2026-04-30 13:44 | 24.83781 | -58.91456 | 33024 ft | 544 kts | 46° |
| 2026-04-30 13:45 | 24.91090 | -58.81870 | 33008 ft | 545 kts | 46° |
| 2026-04-30 13:46 | 24.95964 | -58.75466 | 33006 ft | 546 kts | 46° |
| 2026-04-30 13:46 | 25.00844 | -58.69044 | 33006 ft | 546 kts | 46° |
| 2026-04-30 13:47 | 25.05721 | -58.62616 | 33005 ft | 547 kts | 46° |
| 2026-04-30 13:47 | 25.10607 | -58.56172 | 33008 ft | 548 kts | 46° |
| 2026-04-30 13:48 | 25.15491 | -58.49721 | 33003 ft | 548 kts | 46° |
| 2026-04-30 13:48 | 25.20369 | -58.43265 | 32998 ft | 548 kts | 46° |
| 2026-04-30 13:49 | 25.25250 | -58.36800 | 33016 ft | 547 kts | 46° |
| 2026-04-30 13:49 | 25.30119 | -58.30341 | 32995 ft | 547 kts | 46° |
| 2026-04-30 13:50 | 25.34977 | -58.23887 | 32993 ft | 545 kts | 46° |
| 2026-04-30 13:50 | 25.42213 | -58.14256 | 32990 ft | 545 kts | 46° |
| 2026-04-30 13:51 | 25.47046 | -58.07815 | 33002 ft | 544 kts | 46° |
| 2026-04-30 13:51 | 25.51875 | -58.01369 | 32988 ft | 543 kts | 46° |
| 2026-04-30 13:52 | 25.56690 | -57.94933 | 32991 ft | 543 kts | 46° |
| 2026-04-30 13:52 | 25.61500 | -57.88492 | 32993 ft | 542 kts | 46° |
| 2026-04-30 13:53 | 25.66299 | -57.82062 | 33001 ft | 541 kts | 47° |
| 2026-04-30 13:53 | 25.71075 | -57.75649 | 32997 ft | 538 kts | 47° |
| 2026-04-30 13:54 | 25.75822 | -57.69267 | 32996 ft | 535 kts | 47° |
| 2026-04-30 13:54 | 25.80553 | -57.62898 | 32998 ft | 534 kts | 46° |
| 2026-04-30 13:55 | 25.85275 | -57.56536 | 32993 ft | 533 kts | 47° |
| 2026-04-30 13:55 | 25.89945 | -57.50232 | 32983 ft | 531 kts | 47° |
| 2026-04-30 13:56 | 25.94628 | -57.43903 | 32990 ft | 529 kts | 47° |
| 2026-04-30 13:56 | 25.99297 | -57.37583 | 32973 ft | 528 kts | 47° |
| 2026-04-30 13:57 | 26.03991 | -57.31221 | 33016 ft | 529 kts | 47° |
| 2026-04-30 13:57 | 26.08622 | -57.24938 | 32982 ft | 528 kts | 48° |
| 2026-04-30 13:58 | 26.15595 | -57.15456 | 32977 ft | 527 kts | 48° |
| 2026-04-30 13:59 | 26.20230 | -57.09143 | 32975 ft | 527 kts | 47° |
| 2026-04-30 13:59 | 26.24863 | -57.02825 | 32981 ft | 526 kts | 48° |
| 2026-04-30 14:00 | 26.29489 | -56.96507 | 32974 ft | 526 kts | 48° |
| 2026-04-30 14:00 | 26.36409 | -56.87039 | 32976 ft | 525 kts | 48° |
| 2026-04-30 14:01 | 26.41017 | -56.80724 | 32969 ft | 525 kts | 48° |
| 2026-04-30 14:01 | 26.45623 | -56.74402 | 32972 ft | 525 kts | 48° |
| 2026-04-30 14:02 | 26.50227 | -56.68076 | 32970 ft | 525 kts | 48° |
| 2026-04-30 14:02 | 26.54834 | -56.61735 | 32968 ft | 526 kts | 48° |
| 2026-04-30 14:03 | 26.59442 | -56.55383 | 32980 ft | 526 kts | 48° |
| 2026-04-30 14:03 | 26.64049 | -56.49024 | 32976 ft | 526 kts | 48° |
| 2026-04-30 14:04 | 26.68647 | -56.42669 | 32966 ft | 526 kts | 48° |
| 2026-04-30 14:04 | 26.73246 | -56.36303 | 32966 ft | 525 kts | 48° |
| 2026-04-30 14:05 | 26.77797 | -56.29994 | 32959 ft | 525 kts | 48° |
| 2026-04-30 14:05 | 26.82371 | -56.23644 | 32962 ft | 523 kts | 48° |
| 2026-04-30 14:06 | 26.89196 | -56.14154 | 32955 ft | 520 kts | 48° |
| 2026-04-30 14:07 | 26.95988 | -56.04688 | 32955 ft | 519 kts | 48° |
| 2026-04-30 14:08 | 27.02751 | -55.95244 | 32951 ft | 517 kts | 48° |
| 2026-04-30 14:08 | 27.09482 | -55.85823 | 32953 ft | 515 kts | 48° |
| 2026-04-30 14:09 | 27.13958 | -55.79548 | 32951 ft | 515 kts | 49° |
| 2026-04-30 14:10 | 27.20667 | -55.70126 | 32955 ft | 515 kts | 49° |
| 2026-04-30 14:10 | 27.25136 | -55.63838 | 32948 ft | 515 kts | 49° |
| 2026-04-30 14:11 | 27.29602 | -55.57546 | 32947 ft | 515 kts | 49° |
| 2026-04-30 14:11 | 27.34066 | -55.51247 | 32959 ft | 515 kts | 48° |
| 2026-04-30 14:12 | 27.38531 | -55.44937 | 32945 ft | 515 kts | 49° |
| 2026-04-30 14:12 | 27.42994 | -55.38621 | 32943 ft | 516 kts | 49° |
| 2026-04-30 14:13 | 27.47455 | -55.32299 | 32944 ft | 516 kts | 49° |
| 2026-04-30 14:13 | 27.51912 | -55.25974 | 32938 ft | 516 kts | 48° |
| 2026-04-30 14:14 | 27.55616 | -55.20710 | 32941 ft | 516 kts | 48° |
| 2026-04-30 14:14 | 27.60799 | -55.13334 | 32930 ft | 516 kts | 49° |
| 2026-04-30 14:15 | 27.65253 | -55.06985 | 32948 ft | 516 kts | 49° |
| 2026-04-30 14:15 | 27.69704 | -55.00631 | 32937 ft | 517 kts | 48° |
| 2026-04-30 14:16 | 27.73438 | -54.95293 | 32932 ft | 517 kts | 48° |
| 2026-04-30 14:16 | 27.77891 | -54.88919 | 32930 ft | 517 kts | 48° |
| 2026-04-30 14:17 | 27.82313 | -54.82580 | 32923 ft | 517 kts | 49° |
| 2026-04-30 14:17 | 27.86761 | -54.76194 | 32939 ft | 517 kts | 48° |
| 2026-04-30 14:18 | 27.91212 | -54.69796 | 32924 ft | 518 kts | 48° |
| 2026-04-30 14:18 | 27.97889 | -54.60178 | 32921 ft | 518 kts | 48° |
| 2026-04-30 14:19 | 28.04562 | -54.50544 | 32931 ft | 519 kts | 48° |
| 2026-04-30 14:20 | 28.09015 | -54.44103 | 32919 ft | 519 kts | 48° |
| 2026-04-30 14:20 | 28.15691 | -54.34428 | 32914 ft | 520 kts | 48° |
| 2026-04-30 14:21 | 28.20139 | -54.27970 | 32910 ft | 520 kts | 48° |
| 2026-04-30 14:22 | 28.26803 | -54.18277 | 32910 ft | 520 kts | 48° |
| 2026-04-30 14:22 | 28.33463 | -54.08568 | 32910 ft | 520 kts | 48° |
| 2026-04-30 14:23 | 28.42342 | -53.95588 | 32903 ft | 520 kts | 48° |
| 2026-04-30 14:24 | 28.48996 | -53.85836 | 32903 ft | 521 kts | 48° |
| 2026-04-30 14:25 | 28.57869 | -53.72795 | 32904 ft | 522 kts | 47° |
| 2026-04-30 14:26 | 28.64502 | -53.63021 | 32895 ft | 522 kts | 47° |
| 2026-04-30 14:27 | 28.71186 | -53.53149 | 32900 ft | 523 kts | 47° |
| 2026-04-30 14:27 | 28.75598 | -53.46619 | 32893 ft | 524 kts | 47° |
| 2026-04-30 14:28 | 28.82266 | -53.36731 | 32891 ft | 525 kts | 47° |
| 2026-04-30 14:28 | 28.86708 | -53.30129 | 32901 ft | 525 kts | 47° |
| 2026-04-30 14:29 | 28.95592 | -53.16898 | 32887 ft | 525 kts | 47° |
| 2026-04-30 14:31 | 29.06672 | -53.00336 | 32887 ft | 524 kts | 47° |
| 2026-04-30 14:31 | 29.13306 | -52.90390 | 32878 ft | 524 kts | 47° |
| 2026-04-30 14:32 | 29.19928 | -52.80436 | 32874 ft | 524 kts | 46° |
| 2026-04-30 14:33 | 29.24342 | -52.73788 | 32868 ft | 524 kts | 47° |
| 2026-04-30 14:33 | 29.30953 | -52.63813 | 32872 ft | 525 kts | 47° |
| 2026-04-30 14:34 | 29.35367 | -52.57138 | 32876 ft | 525 kts | 46° |
| 2026-04-30 14:34 | 29.39780 | -52.50455 | 32859 ft | 525 kts | 46° |
| 2026-04-30 14:35 | 29.46360 | -52.40468 | 32867 ft | 526 kts | 47° |
| 2026-04-30 14:36 | 29.50796 | -52.33721 | 32861 ft | 526 kts | 46° |
| 2026-04-30 14:36 | 29.55169 | -52.27061 | 32854 ft | 526 kts | 46° |
| 2026-04-30 14:37 | 29.59565 | -52.20353 | 32857 ft | 526 kts | 46° |
| 2026-04-30 14:37 | 29.63963 | -52.13633 | 32883 ft | 526 kts | 46° |
| 2026-04-30 14:38 | 29.68357 | -52.06908 | 32866 ft | 526 kts | 46° |
| 2026-04-30 14:38 | 29.72744 | -52.00180 | 32847 ft | 526 kts | 46° |
| 2026-04-30 14:39 | 29.77126 | -51.93450 | 32854 ft | 525 kts | 46° |
| 2026-04-30 14:39 | 29.81506 | -51.86712 | 32849 ft | 526 kts | 46° |
| 2026-04-30 14:40 | 29.88070 | -51.76594 | 32851 ft | 526 kts | 46° |
| 2026-04-30 14:40 | 29.92449 | -51.69830 | 32871 ft | 526 kts | 46° |
| 2026-04-30 14:41 | 29.96822 | -51.63064 | 32831 ft | 527 kts | 46° |
| 2026-04-30 14:41 | 30.01195 | -51.56286 | 32839 ft | 527 kts | 46° |
| 2026-04-30 14:42 | 30.05564 | -51.49501 | 32852 ft | 526 kts | 46° |
| 2026-04-30 14:42 | 30.09932 | -51.42709 | 32843 ft | 527 kts | 46° |
| 2026-04-30 14:43 | 30.14295 | -51.35913 | 32844 ft | 527 kts | 46° |
| 2026-04-30 14:43 | 30.18658 | -51.29106 | 32830 ft | 527 kts | 46° |
| 2026-04-30 14:44 | 30.23019 | -51.22289 | 32849 ft | 527 kts | 46° |
| 2026-04-30 14:44 | 30.27378 | -51.15464 | 32835 ft | 528 kts | 46° |
| 2026-04-30 14:45 | 30.31707 | -51.08675 | 32826 ft | 528 kts | 46° |
| 2026-04-30 14:45 | 30.36059 | -51.01837 | 32852 ft | 528 kts | 46° |
| 2026-04-30 14:46 | 30.40414 | -50.94984 | 32823 ft | 528 kts | 46° |
| 2026-04-30 14:46 | 30.44763 | -50.88129 | 32819 ft | 528 kts | 46° |
| 2026-04-30 14:47 | 30.49113 | -50.81260 | 32817 ft | 528 kts | 46° |
| 2026-04-30 14:47 | 30.53463 | -50.74380 | 32818 ft | 529 kts | 46° |
| 2026-04-30 14:48 | 30.57812 | -50.67488 | 32813 ft | 529 kts | 46° |
| 2026-04-30 14:48 | 30.62155 | -50.60593 | 32806 ft | 529 kts | 46° |
| 2026-04-30 14:49 | 30.66499 | -50.53686 | 32818 ft | 530 kts | 46° |
| 2026-04-30 14:49 | 30.70841 | -50.46771 | 32812 ft | 530 kts | 46° |
| 2026-04-30 14:50 | 30.77354 | -50.36373 | 32806 ft | 531 kts | 46° |
| 2026-04-30 14:51 | 30.83867 | -50.25948 | 32802 ft | 531 kts | 46° |
| 2026-04-30 14:52 | 30.90370 | -50.15510 | 32804 ft | 531 kts | 46° |
| 2026-04-30 14:52 | 30.96880 | -50.05034 | 32800 ft | 532 kts | 45° |
| 2026-04-30 14:53 | 31.03919 | -49.95229 | 32855 ft | 522 kts | 35° |
| 2026-04-30 14:54 | 31.09078 | -49.89303 | 33641 ft | 518 kts | 35° |
| 2026-04-30 14:54 | 31.14172 | -49.83411 | 34331 ft | 515 kts | 35° |
| 2026-04-30 14:55 | 31.19240 | -49.77491 | 34712 ft | 518 kts | 36° |
| 2026-04-30 14:55 | 31.21760 | -49.74538 | 34754 ft | 520 kts | 36° |
| 2026-04-30 14:56 | 31.31887 | -49.62594 | 34774 ft | 514 kts | 36° |
| 2026-04-30 14:57 | 31.39419 | -49.53705 | 34780 ft | 513 kts | 36° |
| 2026-04-30 14:58 | 31.49447 | -49.41839 | 34807 ft | 513 kts | 36° |
| 2026-04-30 14:58 | 31.56971 | -49.32908 | 34770 ft | 514 kts | 36° |
| 2026-04-30 15:00 | 31.69539 | -49.17941 | 34773 ft | 516 kts | 36° |
| 2026-04-30 15:01 | 31.79602 | -49.05910 | 34765 ft | 517 kts | 37° |
| 2026-04-30 15:01 | 31.87152 | -48.96857 | 34757 ft | 517 kts | 37° |
| 2026-04-30 15:02 | 31.91334 | -48.91833 | 34751 ft | 517 kts | 37° |
| 2026-04-30 15:03 | 32.03888 | -48.76709 | 34749 ft | 515 kts | 37° |
| 2026-04-30 15:04 | 32.16368 | -48.61614 | 34736 ft | 513 kts | 37° |
| 2026-04-30 15:06 | 32.28778 | -48.46540 | 34741 ft | 512 kts | 38° |
| 2026-04-30 15:07 | 32.38665 | -48.34491 | 34747 ft | 512 kts | 38° |
| 2026-04-30 15:08 | 32.48578 | -48.22361 | 34769 ft | 513 kts | 39° |
| 2026-04-30 15:09 | 32.60966 | -48.07149 | 34733 ft | 513 kts | 39° |
| 2026-04-30 15:10 | 32.70865 | -47.94947 | 34730 ft | 513 kts | 39° |
| 2026-04-30 15:11 | 32.85716 | -47.76563 | 34729 ft | 515 kts | 40° |
| 2026-04-30 15:13 | 32.98107 | -47.61151 | 34728 ft | 515 kts | 40° |
| 2026-04-30 15:14 | 33.15415 | -47.39508 | 34748 ft | 515 kts | 41° |
| 2026-04-30 15:17 | 33.37530 | -47.11665 | 34724 ft | 513 kts | 42° |
| 2026-04-30 15:19 | 33.57138 | -46.86792 | 34729 ft | 513 kts | 43° |
| 2026-04-30 17:39 | 44.82795 | -26.73776 | 35110 ft | 457 kts | 53° |
| 2026-04-30 17:42 | 45.01814 | -26.37617 | 35114 ft | 459 kts | 53° |
| 2026-04-30 17:43 | 45.11278 | -26.19454 | 35114 ft | 458 kts | 53° |
| 2026-04-30 17:44 | 45.22598 | -25.97576 | 35120 ft | 460 kts | 53° |
| 2026-04-30 17:47 | 45.39591 | -25.64415 | 35131 ft | 462 kts | 53° |
| 2026-04-30 17:48 | 45.52758 | -25.38451 | 35131 ft | 461 kts | 53° |
| 2026-04-30 17:50 | 45.67726 | -25.08645 | 35141 ft | 462 kts | 54° |
| 2026-04-30 17:52 | 45.78929 | -24.86129 | 35142 ft | 463 kts | 54° |
| 2026-04-30 17:54 | 45.95640 | -24.52206 | 35141 ft | 463 kts | 54° |
| 2026-04-30 17:56 | 46.10426 | -24.21846 | 35150 ft | 463 kts | 54° |
| 2026-04-30 17:58 | 46.21484 | -23.98924 | 35152 ft | 464 kts | 54° |
| 2026-04-30 18:00 | 46.36179 | -23.68173 | 35158 ft | 465 kts | 54° |
| 2026-04-30 18:01 | 46.45336 | -23.48837 | 35161 ft | 466 kts | 54° |
| 2026-04-30 18:02 | 46.56308 | -23.25491 | 35159 ft | 467 kts | 54° |
| 2026-04-30 18:04 | 46.67241 | -23.02032 | 35158 ft | 469 kts | 54° |
| 2026-04-30 18:06 | 46.81832 | -22.70412 | 35159 ft | 471 kts | 54° |
| 2026-04-30 18:08 | 46.94601 | -22.42442 | 35158 ft | 474 kts | 54° |
| 2026-04-30 18:10 | 47.09182 | -22.10154 | 35152 ft | 476 kts | 54° |
| 2026-04-30 18:11 | 47.21892 | -21.81695 | 35151 ft | 477 kts | 54° |
| 2026-04-30 18:13 | 47.30949 | -21.61237 | 35147 ft | 478 kts | 54° |
| 2026-04-30 18:14 | 47.39377 | -21.42062 | 35148 ft | 478 kts | 54° |
| 2026-04-30 18:15 | 47.50187 | -21.17266 | 35147 ft | 479 kts | 54° |
| 2026-04-30 18:16 | 47.57367 | -21.00671 | 35151 ft | 479 kts | 54° |
| 2026-04-30 18:17 | 47.60951 | -20.92351 | 35140 ft | 480 kts | 54° |
| 2026-04-30 18:18 | 47.66332 | -20.79813 | 35137 ft | 481 kts | 54° |
| 2026-04-30 18:18 | 47.69916 | -20.71428 | 35155 ft | 481 kts | 54° |
| 2026-04-30 18:19 | 47.73473 | -20.63079 | 35142 ft | 482 kts | 54° |
| 2026-04-30 18:19 | 47.77053 | -20.54653 | 35139 ft | 482 kts | 54° |
| 2026-04-30 18:20 | 47.80630 | -20.46206 | 35135 ft | 482 kts | 54° |
| 2026-04-30 18:20 | 47.84195 | -20.37761 | 35134 ft | 482 kts | 54° |
| 2026-04-30 18:21 | 47.87754 | -20.29303 | 35136 ft | 482 kts | 54° |
| 2026-04-30 18:21 | 47.91303 | -20.20844 | 35145 ft | 481 kts | 54° |
| 2026-04-30 18:22 | 47.94846 | -20.12374 | 35136 ft | 481 kts | 54° |
| 2026-04-30 18:22 | 48.00123 | -19.99634 | 35127 ft | 482 kts | 57° |
| 2026-04-30 18:23 | 48.03165 | -19.90681 | 35151 ft | 484 kts | 60° |
| 2026-04-30 18:23 | 48.06102 | -19.81622 | 35138 ft | 485 kts | 60° |
| 2026-04-30 18:24 | 48.10527 | -19.68013 | 35125 ft | 485 kts | 60° |
| 2026-04-30 18:25 | 48.13484 | -19.58949 | 35124 ft | 485 kts | 60° |
| 2026-04-30 18:25 | 48.17915 | -19.45324 | 35120 ft | 485 kts | 60° |
| 2026-04-30 18:26 | 48.22324 | -19.31687 | 35111 ft | 484 kts | 60° |
| 2026-04-30 18:27 | 48.26693 | -19.18096 | 35130 ft | 484 kts | 60° |
| 2026-04-30 18:28 | 48.31055 | -19.04457 | 35101 ft | 482 kts | 60° |
| 2026-04-30 18:28 | 48.35390 | -18.90827 | 35103 ft | 481 kts | 60° |
| 2026-04-30 18:29 | 48.41129 | -18.72671 | 35101 ft | 480 kts | 60° |
| 2026-04-30 18:30 | 48.46824 | -18.54522 | 35094 ft | 478 kts | 60° |
| 2026-04-30 18:31 | 48.51067 | -18.40915 | 35089 ft | 478 kts | 60° |
| 2026-04-30 18:32 | 48.55288 | -18.27303 | 35079 ft | 477 kts | 60° |
| 2026-04-30 18:33 | 48.59481 | -18.13707 | 35073 ft | 476 kts | 61° |
| 2026-04-30 18:33 | 48.63659 | -18.00088 | 35076 ft | 476 kts | 61° |
| 2026-04-30 18:34 | 48.67820 | -17.86447 | 35071 ft | 477 kts | 61° |
| 2026-04-30 18:35 | 48.70572 | -17.77386 | 35073 ft | 477 kts | 61° |
| 2026-04-30 18:35 | 48.73352 | -17.68195 | 35096 ft | 478 kts | 62° |
| 2026-04-30 18:36 | 48.77484 | -17.54474 | 35071 ft | 480 kts | 62° |
| 2026-04-30 18:37 | 48.81632 | -17.40621 | 35057 ft | 481 kts | 62° |
| 2026-04-30 18:37 | 48.84391 | -17.31360 | 35055 ft | 482 kts | 62° |
| 2026-04-30 18:38 | 48.87155 | -17.22056 | 35058 ft | 484 kts | 63° |
| 2026-04-30 18:38 | 48.89923 | -17.12695 | 35057 ft | 486 kts | 63° |
| 2026-04-30 18:39 | 48.92689 | -17.03306 | 35043 ft | 487 kts | 63° |
| 2026-04-30 18:39 | 48.95452 | -16.93889 | 35043 ft | 487 kts | 63° |
| 2026-04-30 18:40 | 48.98209 | -16.84458 | 35032 ft | 488 kts | 63° |
| 2026-04-30 18:40 | 49.00960 | -16.75012 | 35029 ft | 488 kts | 63° |
| 2026-04-30 18:41 | 49.03702 | -16.65555 | 35039 ft | 488 kts | 63° |
| 2026-04-30 18:41 | 49.06436 | -16.56092 | 35022 ft | 488 kts | 64° |
| 2026-04-30 18:42 | 49.09162 | -16.46620 | 35024 ft | 487 kts | 64° |
| 2026-04-30 18:42 | 49.13227 | -16.32427 | 35015 ft | 486 kts | 63° |
| 2026-04-30 18:45 | 49.27942 | -15.80334 | 34995 ft | 488 kts | 65° |
| 2026-04-30 18:46 | 49.30607 | -15.70761 | 35005 ft | 489 kts | 64° |
| 2026-04-30 18:46 | 49.33273 | -15.61163 | 34996 ft | 490 kts | 65° |
| 2026-04-30 18:47 | 49.35933 | -15.51541 | 34989 ft | 490 kts | 64° |
| 2026-04-30 18:47 | 49.38586 | -15.41904 | 34984 ft | 490 kts | 66° |
| 2026-04-30 18:48 | 49.41226 | -15.32280 | 34988 ft | 489 kts | 66° |
| 2026-04-30 18:48 | 49.43856 | -15.22654 | 34981 ft | 488 kts | 65° |
| 2026-04-30 18:49 | 49.46471 | -15.13042 | 34978 ft | 487 kts | 66° |
| 2026-04-30 18:49 | 49.48903 | -15.03310 | 34991 ft | 488 kts | 73° |
| 2026-04-30 18:50 | 49.50074 | -14.93020 | 35056 ft | 493 kts | 86° |
| 2026-04-30 18:50 | 49.50147 | -14.87808 | 35298 ft | 494 kts | 89° |
| 2026-04-30 18:50 | 49.50137 | -14.82536 | 35633 ft | 492 kts | 90° |
| 2026-04-30 18:50 | 49.50114 | -14.77276 | 35983 ft | 491 kts | 90° |
| 2026-04-30 18:51 | 49.50096 | -14.72034 | 36304 ft | 490 kts | 90° |
| 2026-04-30 18:51 | 49.50088 | -14.66796 | 36587 ft | 490 kts | 90° |
| 2026-04-30 18:51 | 49.50088 | -14.61548 | 36841 ft | 491 kts | 90° |
| 2026-04-30 18:52 | 49.50095 | -14.50970 | 36947 ft | 496 kts | 90° |
| 2026-04-30 18:52 | 49.50097 | -14.40372 | 36956 ft | 494 kts | 90° |
| 2026-04-30 18:53 | 49.50086 | -14.29858 | 36957 ft | 490 kts | 90° |
| 2026-04-30 18:53 | 49.50065 | -14.19409 | 36961 ft | 487 kts | 91° |
| 2026-04-30 18:54 | 49.50036 | -14.08994 | 36965 ft | 487 kts | 91° |
| 2026-04-30 18:54 | 49.50386 | -13.98608 | 36967 ft | 487 kts | 82° |
| 2026-04-30 18:55 | 49.51884 | -13.88422 | 36971 ft | 489 kts | 75° |
| 2026-04-30 18:55 | 49.54558 | -13.73303 | 36967 ft | 492 kts | 75° |
| 2026-04-30 18:56 | 49.57188 | -13.58003 | 36965 ft | 494 kts | 76° |
| 2026-04-30 18:57 | 49.59779 | -13.42606 | 36967 ft | 496 kts | 76° |
| 2026-04-30 18:57 | 49.61499 | -13.32301 | 36964 ft | 497 kts | 76° |
| 2026-04-30 18:58 | 49.64067 | -13.16817 | 36964 ft | 497 kts | 76° |
| 2026-04-30 18:59 | 49.66617 | -13.01311 | 36966 ft | 496 kts | 77° |
| 2026-04-30 19:00 | 49.69975 | -12.80660 | 36968 ft | 495 kts | 77° |
| 2026-04-30 19:01 | 49.73291 | -12.60019 | 36971 ft | 494 kts | 78° |
| 2026-04-30 19:02 | 49.75748 | -12.44554 | 36972 ft | 493 kts | 78° |
| 2026-04-30 19:03 | 49.78986 | -12.23951 | 36962 ft | 492 kts | 78° |
| 2026-04-30 19:04 | 49.81912 | -12.05099 | 36975 ft | 492 kts | 79° |
| 2026-04-30 19:05 | 49.85075 | -11.84477 | 36966 ft | 492 kts | 79° |
| 2026-04-30 19:06 | 49.88204 | -11.63806 | 36983 ft | 493 kts | 79° |
| 2026-04-30 19:06 | 49.90530 | -11.48263 | 36987 ft | 494 kts | 79° |
| 2026-04-30 19:07 | 49.92839 | -11.32683 | 36987 ft | 494 kts | 80° |
| 2026-04-30 19:08 | 49.95884 | -11.11892 | 36992 ft | 494 kts | 80° |
| 2026-04-30 19:09 | 49.98143 | -10.96280 | 36981 ft | 494 kts | 81° |
| 2026-04-30 19:09 | 49.99631 | -10.85918 | 36990 ft | 494 kts | 81° |
| 2026-04-30 19:10 | 50.02594 | -10.65049 | 36996 ft | 494 kts | 81° |
| 2026-04-30 19:11 | 50.04794 | -10.49371 | 36981 ft | 494 kts | 82° |
| 2026-04-30 19:12 | 50.06246 | -10.38932 | 36995 ft | 494 kts | 82° |
| 2026-04-30 19:12 | 50.07690 | -10.28472 | 37000 ft | 494 kts | 82° |
| 2026-04-30 19:13 | 50.10550 | -10.07537 | 36979 ft | 494 kts | 83° |
| 2026-04-30 19:14 | 50.11964 | -9.97077 | 37002 ft | 493 kts | 83° |
| 2026-04-30 19:14 | 50.13368 | -9.86621 | 37009 ft | 493 kts | 83° |
| 2026-04-30 19:15 | 50.14760 | -9.76167 | 37010 ft | 492 kts | 83° |
| 2026-04-30 19:15 | 50.16827 | -9.60504 | 37008 ft | 491 kts | 83° |
| 2026-04-30 19:16 | 50.18192 | -9.50062 | 37012 ft | 491 kts | 83° |
| 2026-04-30 19:17 | 50.20221 | -9.34401 | 37013 ft | 491 kts | 83° |
| 2026-04-30 19:17 | 50.22228 | -9.18730 | 36992 ft | 490 kts | 84° |
| 2026-04-30 19:18 | 50.24210 | -9.03089 | 37015 ft | 489 kts | 84° |
| 2026-04-30 19:19 | 50.25516 | -8.92670 | 37020 ft | 489 kts | 84° |
| 2026-04-30 19:19 | 50.27459 | -8.77028 | 37020 ft | 489 kts | 84° |
| 2026-04-30 19:20 | 50.28742 | -8.66600 | 37018 ft | 488 kts | 84° |
| 2026-04-30 19:21 | 50.30641 | -8.51013 | 37027 ft | 489 kts | 84° |
| 2026-04-30 19:22 | 50.33160 | -8.30049 | 36994 ft | 491 kts | 84° |
| 2026-04-30 19:23 | 50.36981 | -7.98514 | 37033 ft | 495 kts | 79° |
| 2026-04-30 19:24 | 50.40206 | -7.83077 | 37009 ft | 497 kts | 76° |
| 2026-04-30 19:25 | 50.45650 | -7.57439 | 37030 ft | 494 kts | 76° |
| 2026-04-30 19:26 | 50.49886 | -7.36935 | 37036 ft | 493 kts | 76° |
| 2026-04-30 19:27 | 50.53030 | -7.21589 | 37044 ft | 492 kts | 76° |
| 2026-04-30 19:28 | 50.56153 | -7.06234 | 37047 ft | 491 kts | 77° |
| 2026-04-30 19:29 | 50.60263 | -6.85849 | 37041 ft | 490 kts | 77° |
| 2026-04-30 19:30 | 50.64343 | -6.65395 | 37056 ft | 489 kts | 77° |
| 2026-04-30 19:31 | 50.68385 | -6.44909 | 37051 ft | 489 kts | 77° |
| 2026-04-30 19:31 | 50.71394 | -6.29527 | 37064 ft | 489 kts | 77° |
| 2026-04-30 19:32 | 50.73387 | -6.19267 | 37059 ft | 489 kts | 77° |
| 2026-04-30 19:32 | 50.75370 | -6.08999 | 37053 ft | 489 kts | 77° |
| 2026-04-30 19:33 | 50.77340 | -5.98746 | 37061 ft | 488 kts | 76° |
| 2026-04-30 19:33 | 50.79299 | -5.88501 | 37067 ft | 487 kts | 77° |
| 2026-04-30 19:34 | 50.81247 | -5.78255 | 37069 ft | 486 kts | 77° |
| 2026-04-30 19:35 | 50.84146 | -5.62899 | 37053 ft | 485 kts | 76° |
| 2026-04-30 19:35 | 50.86050 | -5.52741 | 37069 ft | 484 kts | 76° |
| 2026-04-30 19:36 | 50.87955 | -5.42526 | 37073 ft | 484 kts | 76° |
| 2026-04-30 19:36 | 50.90794 | -5.27200 | 37078 ft | 483 kts | 76° |
| 2026-04-30 19:37 | 50.92674 | -5.16976 | 37074 ft | 483 kts | 76° |
| 2026-04-30 19:37 | 50.94546 | -5.06744 | 37078 ft | 483 kts | 77° |
| 2026-04-30 19:38 | 50.96408 | -4.96503 | 37078 ft | 483 kts | 77° |
| 2026-04-30 19:38 | 50.98263 | -4.86246 | 37083 ft | 484 kts | 77° |
| 2026-04-30 19:39 | 51.00111 | -4.75975 | 37081 ft | 484 kts | 77° |
| 2026-04-30 19:39 | 51.01947 | -4.65705 | 37073 ft | 484 kts | 77° |
| 2026-04-30 19:40 | 51.03774 | -4.55429 | 37084 ft | 483 kts | 77° |
| 2026-04-30 19:40 | 51.05592 | -4.45146 | 37084 ft | 483 kts | 77° |
| 2026-04-30 19:41 | 51.07402 | -4.34853 | 37094 ft | 483 kts | 77° |
| 2026-04-30 19:41 | 51.09200 | -4.24564 | 37071 ft | 483 kts | 77° |
| 2026-04-30 19:42 | 51.10989 | -4.14270 | 37098 ft | 483 kts | 77° |
| 2026-04-30 19:42 | 51.12767 | -4.03969 | 37096 ft | 483 kts | 77° |
| 2026-04-30 19:43 | 51.14538 | -3.93659 | 37110 ft | 483 kts | 77° |
| 2026-04-30 19:44 | 51.17180 | -3.78170 | 37099 ft | 483 kts | 77° |
| 2026-04-30 19:44 | 51.18578 | -3.67751 | 37119 ft | 480 kts | 83° |
| 2026-04-30 19:45 | 51.19610 | -3.57247 | 37120 ft | 480 kts | 84° |
| 2026-04-30 19:45 | 51.20631 | -3.46739 | 37123 ft | 479 kts | 84° |
| 2026-04-30 19:46 | 51.21668 | -3.36235 | 37128 ft | 479 kts | 83° |
| 2026-04-30 19:46 | 51.22709 | -3.25733 | 37124 ft | 479 kts | 84° |
| 2026-04-30 19:47 | 51.23741 | -3.15231 | 37130 ft | 479 kts | 84° |
| 2026-04-30 19:47 | 51.24756 | -3.04789 | 37135 ft | 479 kts | 84° |
| 2026-04-30 19:48 | 51.25769 | -2.94265 | 37138 ft | 480 kts | 84° |
| 2026-04-30 19:48 | 51.26772 | -2.83739 | 37138 ft | 480 kts | 84° |
| 2026-04-30 19:49 | 51.27764 | -2.73216 | 37131 ft | 479 kts | 84° |
| 2026-04-30 19:49 | 51.29233 | -2.57458 | 37135 ft | 477 kts | 84° |
| 2026-04-30 19:50 | 51.30198 | -2.46968 | 37141 ft | 477 kts | 84° |
| 2026-04-30 19:50 | 51.31153 | -2.36481 | 37131 ft | 476 kts | 84° |
| 2026-04-30 19:51 | 51.32096 | -2.26020 | 37149 ft | 475 kts | 84° |
| 2026-04-30 19:51 | 51.33028 | -2.15586 | 37152 ft | 474 kts | 84° |
| 2026-04-30 19:52 | 51.33949 | -2.05171 | 37158 ft | 473 kts | 84° |
| 2026-04-30 19:52 | 51.35079 | -1.96609 | 37151 ft | 475 kts | 75° |
| 2026-04-30 19:53 | 51.37319 | -1.86647 | 37167 ft | 476 kts | 72° |
| 2026-04-30 19:53 | 51.39574 | -1.76698 | 37166 ft | 475 kts | 73° |
| 2026-04-30 19:54 | 51.41762 | -1.66733 | 37173 ft | 474 kts | 73° |
| 2026-04-30 19:54 | 51.43946 | -1.56751 | 37171 ft | 474 kts | 73° |
| 2026-04-30 19:55 | 51.46123 | -1.46764 | 37182 ft | 475 kts | 73° |
| 2026-04-30 19:55 | 51.48292 | -1.36770 | 37180 ft | 474 kts | 73° |
| 2026-04-30 19:56 | 51.50450 | -1.26777 | 37198 ft | 474 kts | 73° |
| 2026-04-30 19:56 | 51.52596 | -1.16762 | 37181 ft | 474 kts | 75° |
| 2026-04-30 19:57 | 51.54338 | -1.06588 | 37180 ft | 472 kts | 78° |
| 2026-04-30 19:57 | 51.55944 | -0.96368 | 37196 ft | 472 kts | 78° |
| 2026-04-30 19:58 | 51.57558 | -0.86132 | 37189 ft | 472 kts | 78° |
| 2026-04-30 19:58 | 51.59183 | -0.75892 | 37191 ft | 473 kts | 78° |
| 2026-04-30 19:59 | 51.60804 | -0.65648 | 37186 ft | 473 kts | 78° |
| 2026-04-30 20:00 | 51.63220 | -0.50255 | 37194 ft | 473 kts | 78° |
| 2026-04-30 20:00 | 51.64817 | -0.39987 | 37186 ft | 473 kts | 78° |
| 2026-04-30 20:01 | 51.67201 | -0.24557 | 37270 ft | 473 kts | 79° |
| 2026-04-30 20:01 | 51.68876 | -0.14295 | 37269 ft | 474 kts | 77° |
| 2026-04-30 20:02 | 51.71333 | 0.01116 | 37194 ft | 473 kts | 78° |
| 2026-04-30 20:03 | 51.73703 | 0.16571 | 37235 ft | 473 kts | 78° |
| 2026-04-30 20:03 | 51.75288 | 0.26877 | 37236 ft | 474 kts | 78° |
| 2026-04-30 20:04 | 51.76868 | 0.37198 | 37237 ft | 474 kts | 79° |
| 2026-04-30 20:05 | 51.79219 | 0.52692 | 37229 ft | 473 kts | 79° |
| 2026-04-30 20:05 | 51.81551 | 0.68167 | 37223 ft | 472 kts | 78° |
| 2026-04-30 20:06 | 51.83134 | 0.78449 | 37227 ft | 471 kts | 78° |
| 2026-04-30 20:06 | 51.84808 | 0.88681 | 37231 ft | 471 kts | 76° |
| 2026-04-30 20:07 | 51.86701 | 0.98825 | 37232 ft | 471 kts | 75° |
| 2026-04-30 20:08 | 51.89505 | 1.14027 | 37239 ft | 469 kts | 76° |
| 2026-04-30 20:08 | 51.91326 | 1.24169 | 37250 ft | 469 kts | 76° |
| 2026-04-30 20:09 | 51.93130 | 1.34303 | 37249 ft | 468 kts | 76° |
| 2026-04-30 20:09 | 51.95802 | 1.49395 | 36638 ft | 466 kts | 76° |
| 2026-04-30 20:10 | 51.97597 | 1.59604 | 35854 ft | 469 kts | 77° |
| 2026-04-30 20:10 | 51.98491 | 1.64707 | 35012 ft | 472 kts | 77° |
| 2026-04-30 20:10 | 51.99370 | 1.69764 | 34240 ft | 472 kts | 78° |
| 2026-04-30 20:11 | 52.01013 | 1.80079 | 32384 ft | 472 kts | 79° |
| 2026-04-30 20:11 | 52.01804 | 1.85254 | 31469 ft | 473 kts | 79° |
| 2026-04-30 20:11 | 52.02596 | 1.90439 | 30646 ft | 473 kts | 79° |
| 2026-04-30 20:12 | 52.04174 | 2.00699 | 29245 ft | 464 kts | 78° |
| 2026-04-30 20:12 | 52.04953 | 2.05746 | 28608 ft | 459 kts | 78° |
| 2026-04-30 20:12 | 52.05724 | 2.10750 | 27976 ft | 454 kts | 78° |
| 2026-04-30 20:13 | 52.06485 | 2.15704 | 27358 ft | 450 kts | 78° |
| 2026-04-30 20:13 | 52.07235 | 2.20610 | 26744 ft | 446 kts | 78° |
| 2026-04-30 20:13 | 52.07979 | 2.25487 | 26149 ft | 442 kts | 78° |
| 2026-04-30 20:13 | 52.08713 | 2.30323 | 25551 ft | 439 kts | 78° |
| 2026-04-30 20:14 | 52.09441 | 2.35126 | 24963 ft | 436 kts | 78° |
| 2026-04-30 20:14 | 52.10164 | 2.39903 | 24389 ft | 433 kts | 78° |
| 2026-04-30 20:14 | 52.10878 | 2.44647 | 23799 ft | 431 kts | 78° |
| 2026-04-30 20:14 | 52.11666 | 2.49338 | 23141 ft | 429 kts | 72° |
| 2026-04-30 20:15 | 52.12997 | 2.53652 | 22779 ft | 424 kts | 61° |
| 2026-04-30 20:15 | 52.14535 | 2.57741 | 22403 ft | 425 kts | 60° |
| 2026-04-30 20:15 | 52.16099 | 2.61849 | 22033 ft | 429 kts | 61° |
| 2026-04-30 20:15 | 52.17664 | 2.66000 | 21654 ft | 430 kts | 61° |
| 2026-04-30 20:16 | 52.19204 | 2.70154 | 21263 ft | 427 kts | 61° |
| 2026-04-30 20:16 | 52.20721 | 2.74306 | 20891 ft | 425 kts | 62° |
| 2026-04-30 20:16 | 52.22219 | 2.78447 | 20527 ft | 423 kts | 62° |
| 2026-04-30 20:16 | 52.23702 | 2.82575 | 20142 ft | 421 kts | 62° |
| 2026-04-30 20:17 | 52.25175 | 2.86686 | 19767 ft | 419 kts | 63° |
| 2026-04-30 20:17 | 52.26640 | 2.90787 | 19402 ft | 417 kts | 63° |
| 2026-04-30 20:17 | 52.28097 | 2.94870 | 19035 ft | 415 kts | 62° |
| 2026-04-30 20:17 | 52.29546 | 2.98936 | 18670 ft | 413 kts | 63° |
| 2026-04-30 20:18 | 52.30986 | 3.02980 | 18264 ft | 411 kts | 63° |
| 2026-04-30 20:18 | 52.32416 | 3.07006 | 17874 ft | 408 kts | 63° |
| 2026-04-30 20:18 | 52.33833 | 3.10998 | 17503 ft | 404 kts | 63° |
| 2026-04-30 20:18 | 52.35238 | 3.14963 | 17141 ft | 401 kts | 63° |
| 2026-04-30 20:19 | 52.36628 | 3.18893 | 16783 ft | 398 kts | 63° |
| 2026-04-30 20:19 | 52.37543 | 3.21484 | 16540 ft | 396 kts | 63° |
| 2026-04-30 20:19 | 52.39376 | 3.26681 | 16084 ft | 393 kts | 63° |
| 2026-04-30 20:19 | 52.40737 | 3.30547 | 15738 ft | 390 kts | 63° |
| 2026-04-30 20:20 | 52.42090 | 3.34392 | 15399 ft | 388 kts | 63° |
| 2026-04-30 20:20 | 52.43432 | 3.38215 | 15063 ft | 387 kts | 63° |
| 2026-04-30 20:20 | 52.44737 | 3.42041 | 14716 ft | 379 kts | 68° |
| 2026-04-30 20:20 | 52.45569 | 3.46081 | 14390 ft | 372 kts | 79° |
| 2026-04-30 20:21 | 52.46101 | 3.50173 | 14061 ft | 372 kts | 81° |
| 2026-04-30 20:21 | 52.46642 | 3.54378 | 13694 ft | 372 kts | 81° |
| 2026-04-30 20:21 | 52.47192 | 3.58517 | 13349 ft | 371 kts | 81° |
| 2026-04-30 20:21 | 52.47748 | 3.62578 | 13011 ft | 369 kts | 80° |
| 2026-04-30 20:22 | 52.48320 | 3.66675 | 12691 ft | 368 kts | 80° |
| 2026-04-30 20:22 | 52.48895 | 3.70747 | 12362 ft | 365 kts | 80° |
| 2026-04-30 20:22 | 52.49465 | 3.74768 | 12035 ft | 357 kts | 80° |
| 2026-04-30 20:22 | 52.50020 | 3.78686 | 11729 ft | 348 kts | 80° |
| 2026-04-30 20:23 | 52.50560 | 3.82508 | 11430 ft | 339 kts | 80° |
| 2026-04-30 20:23 | 52.51086 | 3.86239 | 11145 ft | 331 kts | 80° |
| 2026-04-30 20:23 | 52.51596 | 3.89878 | 10841 ft | 324 kts | 80° |
| 2026-04-30 20:23 | 52.52095 | 3.93438 | 10561 ft | 316 kts | 80° |
| 2026-04-30 20:24 | 52.52307 | 3.96893 | 10266 ft | 298 kts | 98° |
| 2026-04-30 20:24 | 52.51795 | 4.00028 | 10165 ft | 274 kts | 113° |
| 2026-04-30 20:24 | 52.51101 | 4.02872 | 9800 ft | 263 kts | 113° |
| 2026-04-30 20:24 | 52.50424 | 4.05609 | 9573 ft | 256 kts | 114° |
| 2026-04-30 20:25 | 52.49093 | 4.10986 | 9098 ft | 252 kts | 114° |
| 2026-04-30 20:25 | 52.48437 | 4.13642 | 8873 ft | 250 kts | 114° |
| 2026-04-30 20:26 | 52.47144 | 4.18897 | 8444 ft | 246 kts | 114° |
| 2026-04-30 20:26 | 52.45873 | 4.24071 | 8016 ft | 243 kts | 114° |
| 2026-04-30 20:26 | 52.45245 | 4.26629 | 7792 ft | 241 kts | 114° |
| 2026-04-30 20:27 | 52.43991 | 4.31717 | 7391 ft | 240 kts | 114° |
| 2026-04-30 20:27 | 52.42536 | 4.36560 | 6945 ft | 235 kts | 136° |
| 2026-04-30 20:28 | 52.39487 | 4.38530 | 6514 ft | 247 kts | 175° |
| 2026-04-30 20:28 | 52.36034 | 4.38115 | 6072 ft | 250 kts | 181° |
| 2026-04-30 20:29 | 52.32557 | 4.37588 | 5466 ft | 254 kts | 181° |
| 2026-04-30 20:30 | 52.27415 | 4.36908 | 4617 ft | 237 kts | 180° |
| 2026-04-30 20:30 | 52.23233 | 4.38737 | 4056 ft | 211 kts | 133° |
| 2026-04-30 20:31 | 52.21200 | 4.45049 | 3498 ft | 211 kts | 116° |
| 2026-04-30 20:32 | 52.20886 | 4.51737 | 2904 ft | 189 kts | 85° |
| 2026-04-30 20:32 | 52.21985 | 4.55604 | 2541 ft | 185 kts | 70° |
| 2026-04-30 20:33 | 52.22626 | 4.57402 | 2306 ft | 180 kts | 67° |
| 2026-04-30 20:33 | 52.23910 | 4.60742 | 1878 ft | 159 kts | 67° |
| 2026-04-30 20:33 | 52.24480 | 4.62221 | 1636 ft | 151 kts | 68° |
| 2026-04-30 20:34 | 52.25550 | 4.64998 | 1272 ft | 132 kts | 68° |
| 2026-04-30 20:34 | 52.26485 | 4.67461 | 917 ft | 129 kts | 67° |
| 2026-04-30 20:35 | 52.26971 | 4.68717 | 733 ft | 133 kts | 63° |
| 2026-04-30 20:35 | 52.27483 | 4.69997 | 582 ft | 136 kts | 63° |
| 2026-04-30 20:35 | 52.28483 | 4.72611 | 216 ft | 138 kts | 60° |
| 2026-04-30 20:36 | 52.28993 | 4.73935 | 29 ft | 138 kts | 61° |
| 2026-04-30 20:36 | 52.29452 | 4.75131 | 1 ft | 107 kts | 58° |
| 2026-04-30 20:36 | 52.29986 | 4.76527 | 4 ft | 74 kts | 57° |
| 2026-04-30 20:37 | 52.30226 | 4.77149 | 1 ft | 49 kts | 58° |
| 2026-04-30 20:37 | 52.30314 | 4.77465 | 2 ft | 21 kts | 103° |
| 2026-04-30 20:37 | 52.30218 | 4.77538 | 3 ft | 15 kts | 201° |
| 2026-04-30 20:37 | 52.30112 | 4.77389 | 3 ft | 15 kts | 238° |
| 2026-04-30 20:38 | 52.30074 | 4.77289 | 3 ft | 15 kts | 238° |
| 2026-04-30 20:38 | 52.30018 | 4.77139 | 4 ft | 15 kts | 238° |
| 2026-04-30 20:38 | 52.29961 | 4.76990 | 4 ft | 15 kts | 238° |
| 2026-04-30 20:39 | 52.29818 | 4.76712 | 3 ft | 16 kts | 238° |
| 2026-04-30 20:39 | 52.29756 | 4.76551 | 3 ft | 18 kts | 238° |
| 2026-04-30 20:39 | 52.29687 | 4.76371 | 3 ft | 19 kts | 238° |
| 2026-04-30 20:40 | 52.29547 | 4.76006 | 3 ft | 19 kts | 238° |
| 2026-04-30 20:40 | 52.29498 | 4.75808 | 3 ft | 19 kts | 254° |
| 2026-04-30 20:40 | 52.29431 | 4.75625 | 3 ft | 18 kts | 224° |
| 2026-04-30 20:41 | 52.29297 | 4.75357 | 3 ft | 7 kts | 238° |
| 2026-04-30 20:41 | 52.29261 | 4.75326 | 3 ft | 7 kts | 162° |
| 2026-04-30 20:41 | 52.29222 | 4.75362 | 3 ft | 6 kts | 148° |
| 2026-04-30 20:41 | 52.29205 | 4.75380 | 3 ft | 2 kts | 148° |
| 2026-04-30 20:42 | 52.29201 | 4.75384 | 3 ft | 2 kts | 148° |
| 2026-04-30 20:42 | 52.29195 | 4.75390 | 3 ft | 0 kts | 147° |